sensor_id;sensor_type;location;lat;lon;timestamp;pressure;altitude;pressure_sealevel;temperature;humidity
9676;BME280;4876;42.656;23.292;2023-02-17T00:01:31;95211.13;;;3.53;64.17
9676;BME280;4876;42.656;23.292;2023-02-17T00:03:58;95251.41;;;3.72;63.72
9676;BME280;4876;42.656;23.292;2023-02-17T00:06:27;95228.81;;;3.51;63.88
9676;BME280;4876;42.656;23.292;2023-02-17T00:08:54;95237.75;;;3.60;63.87
9676;BME280;4876;42.656;23.292;2023-02-17T00:11:22;95254.63;;;3.36;64.82
9676;BME280;4876;42.656;23.292;2023-02-17T00:13:50;95236.13;;;3.32;64.69
9676;BME280;4876;42.656;23.292;2023-02-17T00:16:18;95249.66;;;3.34;64.81
9676;BME280;4876;42.656;23.292;2023-02-17T00:18:46;95227.78;;;3.30;64.79
9676;BME280;4876;42.656;23.292;2023-02-17T00:21:16;95235.94;;;3.39;64.76
9676;BME280;4876;42.656;23.292;2023-02-17T00:23:43;95235.94;;;3.39;65.19
9676;BME280;4876;42.656;23.292;2023-02-17T00:26:11;95233.03;;;3.35;64.60
9676;BME280;4876;42.656;23.292;2023-02-17T00:28:40;95235.41;;;3.37;64.63
9676;BME280;4876;42.656;23.292;2023-02-17T00:31:08;95231.16;;;3.31;64.92
9676;BME280;4876;42.656;23.292;2023-02-17T00:33:35;95238.28;;;3.40;64.43
9676;BME280;4876;42.656;23.292;2023-02-17T00:36:03;95230.28;;;3.42;64.63
9676;BME280;4876;42.656;23.292;2023-02-17T00:38:31;95220.84;;;3.36;64.44
9676;BME280;4876;42.656;23.292;2023-02-17T00:40:58;95227.19;;;3.45;64.71
9676;BME280;4876;42.656;23.292;2023-02-17T00:43:25;95207.59;;;3.37;64.86
9676;BME280;4876;42.656;23.292;2023-02-17T00:45:53;95202.41;;;3.37;65.00
9676;BME280;4876;42.656;23.292;2023-02-17T00:48:22;95199.06;;;3.42;64.52
9676;BME280;4876;42.656;23.292;2023-02-17T00:50:49;95194.22;;;3.29;64.55
9676;BME280;4876;42.656;23.292;2023-02-17T00:53:16;95193.56;;;3.38;64.83
9676;BME280;4876;42.656;23.292;2023-02-17T00:55:42;95194.88;;;3.41;64.46
9676;BME280;4876;42.656;23.292;2023-02-17T00:58:09;95202.22;;;3.44;63.98
9676;BME280;4876;42.656;23.292;2023-02-17T01:00:36;95200.38;;;3.01;64.65
9676;BME280;4876;42.656;23.292;2023-02-17T01:03:04;95208.00;;;2.68;66.07
9676;BME280;4876;42.656;23.292;2023-02-17T01:05:31;95213.91;;;2.47;67.09
9676;BME280;4876;42.656;23.292;2023-02-17T01:07:58;95212.03;;;2.42;67.85
9676;BME280;4876;42.656;23.292;2023-02-17T01:10:25;95211.72;;;2.39;68.41
9676;BME280;4876;42.656;23.292;2023-02-17T01:12:52;95205.91;;;2.32;68.51
9676;BME280;4876;42.656;23.292;2023-02-17T01:15:19;95208.00;;;2.35;68.81
9676;BME280;4876;42.656;23.292;2023-02-17T01:17:45;95200.84;;;2.42;68.77
9676;BME280;4876;42.656;23.292;2023-02-17T01:20:14;95208.34;;;2.38;68.76
9676;BME280;4876;42.656;23.292;2023-02-17T01:22:41;95195.53;;;2.32;68.72
9676;BME280;4876;42.656;23.292;2023-02-17T01:25:07;95204.88;;;2.33;68.92
9676;BME280;4876;42.656;23.292;2023-02-17T01:27:34;95195.38;;;2.38;69.01
9676;BME280;4876;42.656;23.292;2023-02-17T01:30:02;95186.88;;;2.43;69.02
9676;BME280;4876;42.656;23.292;2023-02-17T01:32:29;95195.78;;;1.68;70.01
9676;BME280;4876;42.656;23.292;2023-02-17T01:34:56;95188.28;;;2.00;70.28
9676;BME280;4876;42.656;23.292;2023-02-17T01:37:24;95185.91;;;2.15;69.86
9676;BME280;4876;42.656;23.292;2023-02-17T01:39:51;95190.03;;;2.11;69.65
9676;BME280;4876;42.656;23.292;2023-02-17T01:42:18;95177.69;;;2.19;68.96
9676;BME280;4876;42.656;23.292;2023-02-17T01:45:27;95183.41;;;2.21;69.18
9676;BME280;4876;42.656;23.292;2023-02-17T01:47:57;95190.94;;;2.22;69.17
9676;BME280;4876;42.656;23.292;2023-02-17T01:50:30;95184.03;;;2.28;68.74
9676;BME280;4876;42.656;23.292;2023-02-17T01:53:00;95195.53;;;2.32;68.57
9676;BME280;4876;42.656;23.292;2023-02-17T01:55:28;95190.34;;;2.32;68.89
9676;BME280;4876;42.656;23.292;2023-02-17T01:57:57;95186.72;;;2.33;68.97
9676;BME280;4876;42.656;23.292;2023-02-17T02:00:27;95179.31;;;2.41;68.56
9676;BME280;4876;42.656;23.292;2023-02-17T02:02:55;95185.53;;;2.24;68.97
9676;BME280;4876;42.656;23.292;2023-02-17T02:05:22;95188.19;;;2.29;69.39
9676;BME280;4876;42.656;23.292;2023-02-17T02:07:53;95189.75;;;2.30;68.97
9676;BME280;4876;42.656;23.292;2023-02-17T02:10:21;95183.56;;;2.14;69.53
9676;BME280;4876;42.656;23.292;2023-02-17T02:12:48;95180.47;;;2.17;69.87
9676;BME280;4876;42.656;23.292;2023-02-17T02:15:17;95168.13;;;1.91;70.53
9676;BME280;4876;42.656;23.292;2023-02-17T02:17:56;95185.00;;;1.48;71.48
9676;BME280;4876;42.656;23.292;2023-02-17T02:27:02;95178.69;;;2.01;70.55
9676;BME280;4876;42.656;23.292;2023-02-17T02:29:58;95186.97;;;1.69;71.61
9676;BME280;4876;42.656;23.292;2023-02-17T02:32:41;95187.59;;;1.76;71.62
9676;BME280;4876;42.656;23.292;2023-02-17T02:35:15;95188.09;;;1.90;70.92
9676;BME280;4876;42.656;23.292;2023-02-17T02:37:48;95186.06;;;1.06;72.72
9676;BME280;4876;42.656;23.292;2023-02-17T02:40:20;95184.19;;;1.30;72.77
9676;BME280;4876;42.656;23.292;2023-02-17T02:42:48;95175.88;;;1.57;72.77
9676;BME280;4876;42.656;23.292;2023-02-17T02:45:16;95179.28;;;1.46;72.43
9676;BME280;4876;42.656;23.292;2023-02-17T02:47:49;95168.63;;;1.59;72.38
9676;BME280;4876;42.656;23.292;2023-02-17T02:50:18;95179.53;;;1.61;72.15
9676;BME280;4876;42.656;23.292;2023-02-17T02:52:54;95187.25;;;1.56;72.02
9676;BME280;4876;42.656;23.292;2023-02-17T02:55:31;95171.66;;;1.39;72.50
9676;BME280;4876;42.656;23.292;2023-02-17T02:58:05;95184.31;;;1.52;72.42
9676;BME280;4876;42.656;23.292;2023-02-17T03:00:41;95188.00;;;1.68;72.27
9676;BME280;4876;42.656;23.292;2023-02-17T03:03:16;95168.53;;;1.82;71.96
9676;BME280;4876;42.656;23.292;2023-02-17T03:05:49;95187.75;;;1.70;72.08
9676;BME280;4876;42.656;23.292;2023-02-17T03:08:24;95181.50;;;1.82;71.69
9676;BME280;4876;42.656;23.292;2023-02-17T03:10:54;95187.56;;;1.88;71.69
9676;BME280;4876;42.656;23.292;2023-02-17T03:13:21;95186.34;;;1.79;71.46
9676;BME280;4876;42.656;23.292;2023-02-17T03:15:48;95180.06;;;1.75;72.26
9676;BME280;4876;42.656;23.292;2023-02-17T03:18:17;95187.16;;;1.96;71.79
9676;BME280;4876;42.656;23.292;2023-02-17T03:20:48;95175.25;;;2.12;71.16
9676;BME280;4876;42.656;23.292;2023-02-17T03:23:16;95176.53;;;1.81;71.13
9676;BME280;4876;42.656;23.292;2023-02-17T03:25:43;95180.22;;;1.85;71.73
9676;BME280;4876;42.656;23.292;2023-02-17T03:28:12;95181.72;;;1.81;71.21
9676;BME280;4876;42.656;23.292;2023-02-17T03:30:39;95172.38;;;1.97;70.88
9676;BME280;4876;42.656;23.292;2023-02-17T03:33:06;95169.63;;;2.03;70.73
9676;BME280;4876;42.656;23.292;2023-02-17T03:35:34;95173.34;;;2.07;69.98
9676;BME280;4876;42.656;23.292;2023-02-17T03:38:01;95187.03;;;1.57;70.23
9676;BME280;4876;42.656;23.292;2023-02-17T03:40:29;95175.97;;;1.22;72.04
9676;BME280;4876;42.656;23.292;2023-02-17T03:42:56;95170.16;;;1.15;73.37
9676;BME280;4876;42.656;23.292;2023-02-17T03:45:23;95176.91;;;1.16;73.52
9676;BME280;4876;42.656;23.292;2023-02-17T03:47:50;95169.69;;;1.18;74.03
9676;BME280;4876;42.656;23.292;2023-02-17T03:50:17;95185.13;;;1.24;74.32
9676;BME280;4876;42.656;23.292;2023-02-17T03:52:45;95182.06;;;1.16;74.18
9676;BME280;4876;42.656;23.292;2023-02-17T03:55:12;95189.13;;;1.32;73.68
9676;BME280;4876;42.656;23.292;2023-02-17T03:57:38;95173.56;;;1.44;73.46
9676;BME280;4876;42.656;23.292;2023-02-17T04:00:06;95180.66;;;1.37;73.26
9676;BME280;4876;42.656;23.292;2023-02-17T04:02:33;95177.47;;;1.46;73.07
9676;BME280;4876;42.656;23.292;2023-02-17T04:05:00;95176.00;;;1.50;72.86
9676;BME280;4876;42.656;23.292;2023-02-17T04:07:27;95184.88;;;1.54;73.05
9676;BME280;4876;42.656;23.292;2023-02-17T04:09:55;95183.03;;;1.67;72.70
9676;BME280;4876;42.656;23.292;2023-02-17T04:12:22;95186.00;;;1.58;72.89
9676;BME280;4876;42.656;23.292;2023-02-17T04:14:49;95182.47;;;1.65;72.46
9676;BME280;4876;42.656;23.292;2023-02-17T04:17:16;95190.72;;;1.61;72.54
9676;BME280;4876;42.656;23.292;2023-02-17T04:19:43;95069.97;;;1.03;72.44
9676;BME280;4876;42.656;23.292;2023-02-17T04:22:09;95176.75;;;1.79;72.16
9676;BME280;4876;42.656;23.292;2023-02-17T04:24:36;95178.59;;;1.96;71.42
9676;BME280;4876;42.656;23.292;2023-02-17T04:27:05;95168.69;;;1.47;71.92
9676;BME280;4876;42.656;23.292;2023-02-17T04:29:32;95168.41;;;1.60;72.28
9676;BME280;4876;42.656;23.292;2023-02-17T04:31:59;95176.03;;;1.67;72.18
9676;BME280;4876;42.656;23.292;2023-02-17T04:34:25;95172.06;;;1.76;71.68
9676;BME280;4876;42.656;23.292;2023-02-17T04:36:52;95179.34;;;1.63;71.49
9676;BME280;4876;42.656;23.292;2023-02-17T04:39:19;95175.63;;;1.58;72.17
9676;BME280;4876;42.656;23.292;2023-02-17T04:41:46;95183.78;;;1.50;71.86
9676;BME280;4876;42.656;23.292;2023-02-17T04:44:14;95178.59;;;1.50;71.79
9676;BME280;4876;42.656;23.292;2023-02-17T04:46:41;95186.72;;;1.42;72.28
9676;BME280;4876;42.656;23.292;2023-02-17T04:49:07;95177.38;;;1.41;72.57
9676;BME280;4876;42.656;23.292;2023-02-17T04:51:34;95184.72;;;1.44;72.72
9676;BME280;4876;42.656;23.292;2023-02-17T04:54:01;95193.91;;;1.52;72.74
9676;BME280;4876;42.656;23.292;2023-02-17T04:56:28;95203.34;;;1.18;73.03
9676;BME280;4876;42.656;23.292;2023-02-17T04:58:55;95188.81;;;1.17;73.29
9676;BME280;4876;42.656;23.292;2023-02-17T05:01:23;95194.44;;;1.37;73.52
9676;BME280;4876;42.656;23.292;2023-02-17T05:03:50;95188.13;;;1.33;73.70
9676;BME280;4876;42.656;23.292;2023-02-17T05:06:16;95185.78;;;1.48;72.80
9676;BME280;4876;42.656;23.292;2023-02-17T05:08:43;95192.59;;;1.49;73.27
9676;BME280;4876;42.656;23.292;2023-02-17T05:11:12;95197.84;;;1.54;73.00
9676;BME280;4876;42.656;23.292;2023-02-17T05:13:39;95178.19;;;1.30;72.55
9676;BME280;4876;42.656;23.292;2023-02-17T05:16:06;95191.91;;;1.42;72.93
9676;BME280;4876;42.656;23.292;2023-02-17T05:18:34;95206.63;;;1.53;72.59
9676;BME280;4876;42.656;23.292;2023-02-17T05:21:01;95214.41;;;1.53;72.02
9676;BME280;4876;42.656;23.292;2023-02-17T05:23:28;95213.91;;;1.68;71.96
9676;BME280;4876;42.656;23.292;2023-02-17T05:25:55;95215.94;;;1.66;72.18
9676;BME280;4876;42.656;23.292;2023-02-17T05:28:21;95228.00;;;1.60;72.14
9676;BME280;4876;42.656;23.292;2023-02-17T05:30:48;95225.06;;;1.69;72.43
9676;BME280;4876;42.656;23.292;2023-02-17T05:33:15;95234.31;;;1.93;71.80
9676;BME280;4876;42.656;23.292;2023-02-17T05:35:43;95229.00;;;2.00;71.49
9676;BME280;4876;42.656;23.292;2023-02-17T05:38:10;95220.34;;;1.94;71.68
9676;BME280;4876;42.656;23.292;2023-02-17T05:40:37;95230.41;;;2.07;71.45
9676;BME280;4876;42.656;23.292;2023-02-17T05:43:04;95215.59;;;1.74;71.66
9676;BME280;4876;42.656;23.292;2023-02-17T05:45:31;95231.78;;;1.81;72.09
9676;BME280;4876;42.656;23.292;2023-02-17T05:47:57;95234.97;;;2.00;72.37
9676;BME280;4876;42.656;23.292;2023-02-17T05:50:24;95245.97;;;1.50;72.25
9676;BME280;4876;42.656;23.292;2023-02-17T05:52:52;95250.81;;;1.47;72.65
9676;BME280;4876;42.656;23.292;2023-02-17T05:55:19;95251.81;;;1.57;72.81
9676;BME280;4876;42.656;23.292;2023-02-17T05:57:46;95246.50;;;1.64;73.23
9676;BME280;4876;42.656;23.292;2023-02-17T06:00:14;95254.50;;;1.63;73.66
9676;BME280;4876;42.656;23.292;2023-02-17T06:02:41;95254.69;;;1.73;73.23
9676;BME280;4876;42.656;23.292;2023-02-17T06:05:08;95241.09;;;1.94;72.80
9676;BME280;4876;42.656;23.292;2023-02-17T06:07:35;95248.97;;;1.99;72.52
9676;BME280;4876;42.656;23.292;2023-02-17T06:10:04;95253.84;;;2.12;72.31
9676;BME280;4876;42.656;23.292;2023-02-17T06:12:31;95249.16;;;2.26;72.01
9676;BME280;4876;42.656;23.292;2023-02-17T06:14:58;95254.59;;;2.25;71.84
9676;BME280;4876;42.656;23.292;2023-02-17T06:17:25;95260.00;;;2.40;71.83
9676;BME280;4876;42.656;23.292;2023-02-17T06:19:52;95254.66;;;2.63;70.83
9676;BME280;4876;42.656;23.292;2023-02-17T06:22:19;95245.94;;;2.69;70.84
9676;BME280;4876;42.656;23.292;2023-02-17T06:24:46;95252.97;;;2.91;69.89
9676;BME280;4876;42.656;23.292;2023-02-17T06:27:14;95247.94;;;2.84;69.68
9676;BME280;4876;42.656;23.292;2023-02-17T06:29:41;95252.28;;;2.28;71.36
9676;BME280;4876;42.656;23.292;2023-02-17T06:32:08;95258.53;;;2.44;71.66
9676;BME280;4876;42.656;23.292;2023-02-17T06:34:35;95253.88;;;2.63;69.89
9676;BME280;4876;42.656;23.292;2023-02-17T06:37:02;95261.75;;;2.51;71.10
9676;BME280;4876;42.656;23.292;2023-02-17T06:39:29;95254.00;;;2.90;69.08
9676;BME280;4876;42.656;23.292;2023-02-17T06:41:56;95256.53;;;2.85;69.84
9676;BME280;4876;42.656;23.292;2023-02-17T06:44:24;95262.06;;;3.10;69.02
9676;BME280;4876;42.656;23.292;2023-02-17T06:46:51;95266.00;;;3.30;68.73
9676;BME280;4876;42.656;23.292;2023-02-17T06:49:18;95282.75;;;3.00;68.88
9676;BME280;4876;42.656;23.292;2023-02-17T06:51:45;95272.09;;;3.02;69.71
9676;BME280;4876;42.656;23.292;2023-02-17T06:54:11;95268.78;;;3.23;68.97
9676;BME280;4876;42.656;23.292;2023-02-17T06:56:38;95275.38;;;3.31;68.10
9676;BME280;4876;42.656;23.292;2023-02-17T06:59:05;95275.38;;;3.31;68.18
9676;BME280;4876;42.656;23.292;2023-02-17T07:01:33;95273.91;;;3.40;68.27
9676;BME280;4876;42.656;23.292;2023-02-17T07:04:00;95279.34;;;3.38;68.00
9676;BME280;4876;42.656;23.292;2023-02-17T07:06:27;95276.63;;;3.28;67.08
9676;BME280;4876;42.656;23.292;2023-02-17T07:08:54;95274.25;;;3.27;67.64
9676;BME280;4876;42.656;23.292;2023-02-17T07:11:20;95281.69;;;3.18;67.88
9676;BME280;4876;42.656;23.292;2023-02-17T07:13:47;95274.97;;;3.22;68.14
9676;BME280;4876;42.656;23.292;2023-02-17T07:16:14;95272.09;;;3.18;68.13
9676;BME280;4876;42.656;23.292;2023-02-17T07:18:43;95286.53;;;3.31;68.01
9676;BME280;4876;42.656;23.292;2023-02-17T07:21:10;95288.38;;;3.53;68.04
9676;BME280;4876;42.656;23.292;2023-02-17T07:23:37;95296.72;;;3.55;67.69
9676;BME280;4876;42.656;23.292;2023-02-17T07:26:05;95287.47;;;3.64;66.63
9676;BME280;4876;42.656;23.292;2023-02-17T07:28:32;95297.44;;;3.72;67.15
9676;BME280;4876;42.656;23.292;2023-02-17T07:31:04;95292.97;;;3.89;67.71
9676;BME280;4876;42.656;23.292;2023-02-17T07:33:30;95296.41;;;3.95;66.99
9676;BME280;4876;42.656;23.292;2023-02-17T07:35:59;95293.41;;;4.08;66.55
9676;BME280;4876;42.656;23.292;2023-02-17T07:38:25;95289.34;;;4.17;66.65
9676;BME280;4876;42.656;23.292;2023-02-17T07:40:52;95299.97;;;4.11;66.92
9676;BME280;4876;42.656;23.292;2023-02-17T07:43:19;95300.75;;;4.38;66.94
9676;BME280;4876;42.656;23.292;2023-02-17T07:45:46;95296.78;;;4.63;66.04
9676;BME280;4876;42.656;23.292;2023-02-17T07:48:12;95303.91;;;4.72;66.07
9676;BME280;4876;42.656;23.292;2023-02-17T07:50:39;95308.25;;;4.94;66.05
9676;BME280;4876;42.656;23.292;2023-02-17T07:53:07;95299.00;;;5.13;64.65
9676;BME280;4876;42.656;23.292;2023-02-17T07:55:34;95298.84;;;5.30;63.40
9676;BME280;4876;42.656;23.292;2023-02-17T07:58:01;95299.66;;;5.35;62.66
9676;BME280;4876;42.656;23.292;2023-02-17T08:00:28;95299.47;;;5.52;62.61
9676;BME280;4876;42.656;23.292;2023-02-17T08:02:55;95292.53;;;5.73;62.27
9676;BME280;4876;42.656;23.292;2023-02-17T08:05:21;95291.53;;;5.84;62.24
9676;BME280;4876;42.656;23.292;2023-02-17T08:07:48;95289.53;;;5.97;60.87
9676;BME280;4876;42.656;23.292;2023-02-17T08:10:37;95286.19;;;6.22;60.99
9676;BME280;4876;42.656;23.292;2023-02-17T08:13:22;95294.56;;;6.34;60.55
9676;BME280;4876;42.656;23.292;2023-02-17T08:15:49;95294.59;;;6.64;59.88
9676;BME280;4876;42.656;23.292;2023-02-17T08:18:16;95293.03;;;6.94;58.96
9676;BME280;4876;42.656;23.292;2023-02-17T08:20:43;95287.53;;;6.95;58.33
9676;BME280;4876;42.656;23.292;2023-02-17T08:23:09;95295.88;;;7.08;57.72
9676;BME280;4876;42.656;23.292;2023-02-17T08:25:38;95298.22;;;7.35;56.98
9676;BME280;4876;42.656;23.292;2023-02-17T08:28:05;95289.53;;;7.49;55.96
9676;BME280;4876;42.656;23.292;2023-02-17T08:30:34;95288.94;;;7.73;56.06
9676;BME280;4876;42.656;23.292;2023-02-17T08:33:03;95289.91;;;7.87;54.74
9676;BME280;4876;42.656;23.292;2023-02-17T08:35:29;95273.69;;;7.90;55.05
9676;BME280;4876;42.656;23.292;2023-02-17T08:37:56;95278.84;;;8.05;55.31
9676;BME280;4876;42.656;23.292;2023-02-17T08:40:24;95280.09;;;8.18;54.59
9676;BME280;4876;42.656;23.292;2023-02-17T08:42:52;95279.25;;;8.28;54.84
9676;BME280;4876;42.656;23.292;2023-02-17T08:45:19;95276.78;;;8.52;53.46
9676;BME280;4876;42.656;23.292;2023-02-17T08:47:46;95285.28;;;8.68;52.91
9676;BME280;4876;42.656;23.292;2023-02-17T08:50:17;95270.50;;;8.82;52.38
9676;BME280;4876;42.656;23.292;2023-02-17T08:52:44;95288.88;;;9.11;51.20
9676;BME280;4876;42.656;23.292;2023-02-17T08:55:12;95282.13;;;9.34;50.75
9676;BME280;4876;42.656;23.292;2023-02-17T08:57:39;95282.97;;;9.53;50.72
9676;BME280;4876;42.656;23.292;2023-02-17T09:00:09;95285.53;;;9.58;50.08
9676;BME280;4876;42.656;23.292;2023-02-17T09:02:36;95286.25;;;9.88;46.99
9676;BME280;4876;42.656;23.292;2023-02-17T09:05:03;95261.22;;;10.14;42.36
9676;BME280;4876;42.656;23.292;2023-02-17T09:07:30;95273.38;;;10.48;41.45
9676;BME280;4876;42.656;23.292;2023-02-17T09:09:57;95272.44;;;10.76;39.98
9676;BME280;4876;42.656;23.292;2023-02-17T09:12:23;95276.97;;;10.90;39.76
9676;BME280;4876;42.656;23.292;2023-02-17T09:14:50;95274.66;;;11.02;39.40
9676;BME280;4876;42.656;23.292;2023-02-17T09:17:18;95267.38;;;11.13;39.00
9676;BME280;4876;42.656;23.292;2023-02-17T09:19:45;95275.69;;;11.33;38.25
9676;BME280;4876;42.656;23.292;2023-02-17T09:22:13;95273.16;;;11.42;38.29
9676;BME280;4876;42.656;23.292;2023-02-17T09:24:41;95276.00;;;11.46;38.18
9676;BME280;4876;42.656;23.292;2023-02-17T09:27:08;95268.97;;;11.55;37.51
9676;BME280;4876;42.656;23.292;2023-02-17T09:29:35;95276.50;;;11.75;37.89
9676;BME280;4876;42.656;23.292;2023-02-17T09:32:05;95268.53;;;11.94;37.63
9676;BME280;4876;42.656;23.292;2023-02-17T09:34:34;95280.44;;;12.05;37.34
9676;BME280;4876;42.656;23.292;2023-02-17T09:37:01;95265.84;;;12.08;36.75
9676;BME280;4876;42.656;23.292;2023-02-17T09:39:28;95271.81;;;12.13;36.95
9676;BME280;4876;42.656;23.292;2023-02-17T09:41:55;95271.22;;;12.17;36.70
9676;BME280;4876;42.656;23.292;2023-02-17T09:44:24;95279.16;;;12.03;37.38
9676;BME280;4876;42.656;23.292;2023-02-17T09:46:56;95268.09;;;12.15;37.38
9676;BME280;4876;42.656;23.292;2023-02-17T09:49:27;95255.50;;;12.11;36.20
9676;BME280;4876;42.656;23.292;2023-02-17T09:52:01;95262.78;;;12.28;36.10
9676;BME280;4876;42.656;23.292;2023-02-17T09:54:34;95266.66;;;12.45;35.69
9676;BME280;4876;42.656;23.292;2023-02-17T09:57:03;95260.19;;;12.51;35.50
9676;BME280;4876;42.656;23.292;2023-02-17T09:59:36;95268.56;;;12.53;35.50
9676;BME280;4876;42.656;23.292;2023-02-17T10:02:06;95270.44;;;12.52;35.34
9676;BME280;4876;42.656;23.292;2023-02-17T10:04:38;95258.03;;;12.53;35.51
9676;BME280;4876;42.656;23.292;2023-02-17T10:07:11;95267.47;;;12.68;35.24
9676;BME280;4876;42.656;23.292;2023-02-17T10:09:46;95262.06;;;12.50;34.19
9676;BME280;4876;42.656;23.292;2023-02-17T10:12:17;95256.09;;;12.45;33.88
9676;BME280;4876;42.656;23.292;2023-02-17T10:14:47;95251.91;;;12.44;34.28
9676;BME280;4876;42.656;23.292;2023-02-17T10:17:19;95247.81;;;12.37;34.70
9676;BME280;4876;42.656;23.292;2023-02-17T10:19:53;95243.25;;;12.29;35.04
9676;BME280;4876;42.656;23.292;2023-02-17T10:22:25;95246.13;;;12.42;34.04
9676;BME280;4876;42.656;23.292;2023-02-17T10:24:52;95262.56;;;12.38;34.32
9676;BME280;4876;42.656;23.292;2023-02-17T10:27:29;95240.59;;;12.29;33.63
9676;BME280;4876;42.656;23.292;2023-02-17T10:30:16;95236.78;;;12.35;33.36
9676;BME280;4876;42.656;23.292;2023-02-17T10:32:53;95235.22;;;12.34;33.48
9676;BME280;4876;42.656;23.292;2023-02-17T10:35:33;95226.72;;;12.37;34.23
9676;BME280;4876;42.656;23.292;2023-02-17T10:38:16;95231.91;;;12.29;34.32
9676;BME280;4876;42.656;23.292;2023-02-17T10:40:46;95223.31;;;12.37;34.40
9676;BME280;4876;42.656;23.292;2023-02-17T10:43:20;95222.53;;;12.36;33.83
9676;BME280;4876;42.656;23.292;2023-02-17T10:45:49;95210.59;;;12.39;34.63
9676;BME280;4876;42.656;23.292;2023-02-17T10:48:20;95223.84;;;12.48;34.82
9676;BME280;4876;42.656;23.292;2023-02-17T10:50:49;95220.97;;;12.58;34.62
9676;BME280;4876;42.656;23.292;2023-02-17T10:53:21;95215.09;;;12.61;35.18
9676;BME280;4876;42.656;23.292;2023-02-17T10:55:54;95213.91;;;12.67;34.64
9676;BME280;4876;42.656;23.292;2023-02-17T10:58:28;95209.53;;;12.62;34.80
9676;BME280;4876;42.656;23.292;2023-02-17T11:00:57;95205.03;;;12.63;34.34
9676;BME280;4876;42.656;23.292;2023-02-17T11:03:27;95203.28;;;12.81;35.05
9676;BME280;4876;42.656;23.292;2023-02-17T11:05:56;95205.53;;;12.96;34.79
9676;BME280;4876;42.656;23.292;2023-02-17T11:08:31;95202.72;;;12.92;34.31
9676;BME280;4876;42.656;23.292;2023-02-17T11:11:01;95199.84;;;12.80;33.68
9676;BME280;4876;42.656;23.292;2023-02-17T11:13:35;95201.50;;;12.68;34.14
9676;BME280;4876;42.656;23.292;2023-02-17T11:16:03;95203.41;;;12.76;34.45
9676;BME280;4876;42.656;23.292;2023-02-17T11:18:32;95203.97;;;12.73;34.61
9676;BME280;4876;42.656;23.292;2023-02-17T11:21:02;95199.66;;;12.77;34.98
9676;BME280;4876;42.656;23.292;2023-02-17T11:23:32;95197.34;;;12.75;34.58
9676;BME280;4876;42.656;23.292;2023-02-17T11:26:06;95191.28;;;12.75;34.93
9676;BME280;4876;42.656;23.292;2023-02-17T11:28:33;95192.88;;;12.84;35.06
9676;BME280;4876;42.656;23.292;2023-02-17T11:31:00;95198.00;;;12.81;34.92
9676;BME280;4876;42.656;23.292;2023-02-17T11:33:31;95200.00;;;12.84;35.85
9676;BME280;4876;42.656;23.292;2023-02-17T11:36:00;95188.16;;;12.73;35.68
9676;BME280;4876;42.656;23.292;2023-02-17T11:38:31;95189.41;;;12.75;35.84
9676;BME280;4876;42.656;23.292;2023-02-17T11:41:01;95179.09;;;12.87;36.23
9676;BME280;4876;42.656;23.292;2023-02-17T11:43:30;95185.94;;;12.97;35.65
9676;BME280;4876;42.656;23.292;2023-02-17T11:46:07;95179.25;;;12.91;36.17
9676;BME280;4876;42.656;23.292;2023-02-17T11:49:05;95190.66;;;13.09;36.03
9676;BME280;4876;42.656;23.292;2023-02-17T11:51:50;95182.16;;;13.12;36.05
9676;BME280;4876;42.656;23.292;2023-02-17T11:54:22;95183.00;;;13.21;36.11
9676;BME280;4876;42.656;23.292;2023-02-17T11:57:01;95177.22;;;13.19;36.23
9676;BME280;4876;42.656;23.292;2023-02-17T11:59:46;95172.31;;;13.04;36.66
9676;BME280;4876;42.656;23.292;2023-02-17T12:02:26;95169.22;;;13.02;36.79
9676;BME280;4876;42.656;23.292;2023-02-17T12:05:04;95166.44;;;13.07;36.89
9676;BME280;4876;42.656;23.292;2023-02-17T12:08:10;95168.69;;;13.22;36.45
9676;BME280;4876;42.656;23.292;2023-02-17T12:10:55;95161.19;;;13.15;36.82
9676;BME280;4876;42.656;23.292;2023-02-17T12:13:38;95162.38;;;13.40;40.03
9676;BME280;4876;42.656;23.292;2023-02-17T12:16:20;95161.25;;;13.24;37.43
9676;BME280;4876;42.656;23.292;2023-02-17T12:19:00;95150.78;;;13.19;37.19
9676;BME280;4876;42.656;23.292;2023-02-17T12:21:47;95142.78;;;13.24;37.26
9676;BME280;4876;42.656;23.292;2023-02-17T12:24:33;95140.59;;;13.26;37.20
9676;BME280;4876;42.656;23.292;2023-02-17T12:27:07;95135.63;;;13.25;37.08
9676;BME280;4876;42.656;23.292;2023-02-17T12:29:57;95133.69;;;13.16;37.20
9676;BME280;4876;42.656;23.292;2023-02-17T12:32:37;95128.41;;;13.16;37.06
9676;BME280;4876;42.656;23.292;2023-02-17T12:35:15;95130.81;;;13.27;36.84
9676;BME280;4876;42.656;23.292;2023-02-17T12:37:48;95116.81;;;13.35;37.50
9676;BME280;4876;42.656;23.292;2023-02-17T12:40:32;95111.84;;;13.33;36.50
9676;BME280;4876;42.656;23.292;2023-02-17T12:43:06;95110.78;;;13.34;36.59
9676;BME280;4876;42.656;23.292;2023-02-17T12:45:38;95113.91;;;13.45;36.98
9676;BME280;4876;42.656;23.292;2023-02-17T12:48:13;95106.91;;;13.40;36.86
9676;BME280;4876;42.656;23.292;2023-02-17T12:50:49;95104.56;;;13.39;36.55
9676;BME280;4876;42.656;23.292;2023-02-17T12:53:22;95108.13;;;13.34;36.65
9676;BME280;4876;42.656;23.292;2023-02-17T12:55:55;95090.28;;;13.40;36.69
9676;BME280;4876;42.656;23.292;2023-02-17T12:58:24;95096.50;;;13.44;36.65
9676;BME280;4876;42.656;23.292;2023-02-17T13:00:56;95093.09;;;13.52;36.52
9676;BME280;4876;42.656;23.292;2023-02-17T13:03:28;95090.94;;;13.54;36.77
9676;BME280;4876;42.656;23.292;2023-02-17T13:05:59;95085.94;;;13.53;36.33
9676;BME280;4876;42.656;23.292;2023-02-17T13:08:31;95090.75;;;13.51;36.47
9676;BME280;4876;42.656;23.292;2023-02-17T13:11:05;95095.59;;;13.49;36.97
9676;BME280;4876;42.656;23.292;2023-02-17T13:13:33;95094.19;;;13.42;36.87
9676;BME280;4876;42.656;23.292;2023-02-17T13:16:04;95093.53;;;13.45;36.62
9676;BME280;4876;42.656;23.292;2023-02-17T13:18:34;95094.34;;;13.63;36.42
9676;BME280;4876;42.656;23.292;2023-02-17T13:21:14;95094.38;;;13.81;36.24
9676;BME280;4876;42.656;23.292;2023-02-17T13:23:44;95082.88;;;13.85;36.26
9676;BME280;4876;42.656;23.292;2023-02-17T13:26:25;95081.28;;;13.58;35.67
9676;BME280;4876;42.656;23.292;2023-02-17T13:28:54;95096.84;;;13.77;35.93
9676;BME280;4876;42.656;23.292;2023-02-17T13:31:43;95087.06;;;13.86;35.55
9676;BME280;4876;42.656;23.292;2023-02-17T13:34:23;95070.41;;;13.68;35.07
9676;BME280;4876;42.656;23.292;2023-02-17T13:36:50;95095.13;;;13.81;35.20
9676;BME280;4876;42.656;23.292;2023-02-17T13:39:35;95089.22;;;13.67;34.77